SWR36C LSZH-LEMG
Flight info
| Callsign | SWR36C |
|---|---|
| Flight time | N/A |
| Altitude | 38000 |
| Route | VEBIT T50 ROTOS Z669 ULMES DCT VADAR DCT NINTU DCT MEBAK DCT REPSI DCT LERGA DCT MINSO DCT NARAK DCT AGN DCT MAQAB DCT TIVLI DCT ELSAP DCT ZAR DCT EXEMU DCT PISUS DCT EDIMU DCT ADUXO DCT NUSGO DCT OBIBO DCT NASOS DCT ANZAN DCT BLN |
| Aircraft | A333/H-SDE3GHIJ2J3J5M1RVWXY/LB2D1 |
Departure
| Time | 2026-04-30 12:37 |
|---|---|
| Airport | Zürich Airport (LSZH) |
Arrival
| Time | N/A |
|---|---|
| Airport | Málaga-Costa del Sol Airport (LEMG) |
| Time | Latitude | Longitude | Altitude | Speed | Heading |
|---|---|---|---|---|---|
| 2026-04-30 12:07 | 47.46179 | 8.55492 | 1403 ft | 0 kts | 186° |
| 2026-04-30 12:13 | 47.46179 | 8.55493 | 1402 ft | 0 kts | 186° |
| 2026-04-30 12:13 | 47.46179 | 8.55492 | 1402 ft | 0 kts | 186° |
| 2026-04-30 12:14 | 47.46179 | 8.55493 | 1402 ft | 0 kts | 186° |
| 2026-04-30 12:20 | 47.46180 | 8.55493 | 1402 ft | 0 kts | 186° |
| 2026-04-30 12:25 | 47.46193 | 8.55495 | 1409 ft | 3 kts | 186° |
| 2026-04-30 12:25 | 47.46213 | 8.55498 | 1409 ft | 3 kts | 186° |
| 2026-04-30 12:25 | 47.46233 | 8.55500 | 1405 ft | 3 kts | 209° |
| 2026-04-30 12:25 | 47.46248 | 8.55520 | 1411 ft | 3 kts | 257° |
| 2026-04-30 12:26 | 47.46249 | 8.55537 | 1412 ft | 0 kts | 274° |
| 2026-04-30 12:28 | 47.46251 | 8.55517 | 1411 ft | 5 kts | 279° |
| 2026-04-30 12:28 | 47.46259 | 8.55448 | 1403 ft | 10 kts | 278° |
| 2026-04-30 12:28 | 47.46268 | 8.55329 | 1404 ft | 13 kts | 276° |
| 2026-04-30 12:28 | 47.46279 | 8.55177 | 1404 ft | 16 kts | 275° |
| 2026-04-30 12:29 | 47.46290 | 8.55024 | 1395 ft | 16 kts | 276° |
| 2026-04-30 12:29 | 47.46301 | 8.54860 | 1395 ft | 13 kts | 275° |
| 2026-04-30 12:29 | 47.46327 | 8.54735 | 1385 ft | 13 kts | 317° |
| 2026-04-30 12:29 | 47.46410 | 8.54673 | 1386 ft | 14 kts | 335° |
| 2026-04-30 12:30 | 47.46496 | 8.54615 | 1403 ft | 13 kts | 335° |
| 2026-04-30 12:30 | 47.46581 | 8.54554 | 1404 ft | 14 kts | 334° |
| 2026-04-30 12:30 | 47.46675 | 8.54491 | 1387 ft | 15 kts | 336° |
| 2026-04-30 12:30 | 47.46779 | 8.54427 | 1384 ft | 16 kts | 340° |
| 2026-04-30 12:31 | 47.46877 | 8.54366 | 1382 ft | 14 kts | 335° |
| 2026-04-30 12:31 | 47.46953 | 8.54313 | 1384 ft | 12 kts | 335° |
| 2026-04-30 12:31 | 47.47031 | 8.54260 | 1384 ft | 13 kts | 335° |
| 2026-04-30 12:31 | 47.47112 | 8.54204 | 1388 ft | 13 kts | 335° |
| 2026-04-30 12:32 | 47.47196 | 8.54147 | 1386 ft | 14 kts | 335° |
| 2026-04-30 12:32 | 47.47284 | 8.54086 | 1396 ft | 14 kts | 335° |
| 2026-04-30 12:32 | 47.47369 | 8.54027 | 1405 ft | 13 kts | 335° |
| 2026-04-30 12:32 | 47.47448 | 8.53973 | 1400 ft | 12 kts | 335° |
| 2026-04-30 12:33 | 47.47523 | 8.53921 | 1407 ft | 12 kts | 335° |
| 2026-04-30 12:33 | 47.47577 | 8.53882 | 1408 ft | 8 kts | 327° |
| 2026-04-30 12:33 | 47.47606 | 8.53817 | 1410 ft | 8 kts | 291° |
| 2026-04-30 12:33 | 47.47609 | 8.53792 | 1407 ft | 0 kts | 276° |
| 2026-04-30 12:34 | 47.47608 | 8.53763 | 1406 ft | 5 kts | 264° |
| 2026-04-30 12:35 | 47.47592 | 8.53698 | 1410 ft | 9 kts | 245° |
| 2026-04-30 12:35 | 47.47551 | 8.53625 | 1412 ft | 10 kts | 206° |
| 2026-04-30 12:35 | 47.47494 | 8.53645 | 1404 ft | 0 kts | 154° |
| 2026-04-30 12:36 | 47.47408 | 8.53706 | 1407 ft | 43 kts | 155° |
| 2026-04-30 12:36 | 47.46925 | 8.54039 | 1384 ft | 108 kts | 155° |
| 2026-04-30 12:36 | 47.46067 | 8.54629 | 1405 ft | 162 kts | 156° |
| 2026-04-30 12:37 | 47.44899 | 8.55444 | 1617 ft | 201 kts | 148° |
| 2026-04-30 12:37 | 47.43563 | 8.56388 | 2158 ft | 222 kts | 149° |
| 2026-04-30 12:37 | 47.42382 | 8.57767 | 3066 ft | 216 kts | 117° |
| 2026-04-30 12:37 | 47.42111 | 8.59825 | 3957 ft | 208 kts | 77° |
| 2026-04-30 12:38 | 47.42866 | 8.61583 | 4917 ft | 211 kts | 37° |
| 2026-04-30 12:38 | 47.44284 | 8.62191 | 5604 ft | 222 kts | 358° |
| 2026-04-30 12:38 | 47.45752 | 8.61318 | 6343 ft | 238 kts | 324° |
| 2026-04-30 12:38 | 47.46816 | 8.59436 | 7212 ft | 243 kts | 295° |
| 2026-04-30 12:39 | 47.47114 | 8.57002 | 8133 ft | 244 kts | 262° |
| 2026-04-30 12:39 | 47.46775 | 8.54547 | 9054 ft | 244 kts | 253° |
| 2026-04-30 12:39 | 47.46031 | 8.52224 | 9629 ft | 262 kts | 236° |
| 2026-04-30 12:39 | 47.44995 | 8.49863 | 9995 ft | 285 kts | 237° |
| 2026-04-30 12:40 | 47.43934 | 8.47304 | 10562 ft | 300 kts | 238° |
| 2026-04-30 12:40 | 47.42829 | 8.44545 | 10887 ft | 323 kts | 239° |
| 2026-04-30 12:40 | 47.41668 | 8.41589 | 11218 ft | 344 kts | 239° |
| 2026-04-30 12:40 | 47.40458 | 8.38476 | 11828 ft | 353 kts | 240° |
| 2026-04-30 12:41 | 47.39230 | 8.35292 | 12634 ft | 358 kts | 241° |
| 2026-04-30 12:41 | 47.38040 | 8.32034 | 13354 ft | 364 kts | 242° |
| 2026-04-30 12:41 | 47.36855 | 8.28699 | 14096 ft | 370 kts | 243° |
| 2026-04-30 12:41 | 47.35655 | 8.25310 | 14752 ft | 375 kts | 243° |
| 2026-04-30 12:42 | 47.34447 | 8.21904 | 15558 ft | 375 kts | 243° |
| 2026-04-30 12:42 | 47.33227 | 8.18474 | 16259 ft | 380 kts | 243° |
| 2026-04-30 12:42 | 47.31993 | 8.15003 | 16891 ft | 386 kts | 243° |
| 2026-04-30 12:42 | 47.30739 | 8.11475 | 17604 ft | 389 kts | 243° |
| 2026-04-30 12:43 | 47.29478 | 8.07932 | 18359 ft | 392 kts | 243° |
| 2026-04-30 12:43 | 47.28207 | 8.04362 | 18953 ft | 396 kts | 243° |
| 2026-04-30 12:43 | 47.26940 | 8.00722 | 19493 ft | 401 kts | 245° |
| 2026-04-30 12:43 | 47.25779 | 7.96978 | 20097 ft | 403 kts | 248° |
| 2026-04-30 12:44 | 47.24684 | 7.93159 | 20686 ft | 406 kts | 249° |
| 2026-04-30 12:44 | 47.23618 | 7.89295 | 21245 ft | 410 kts | 249° |
| 2026-04-30 12:44 | 47.22549 | 7.85378 | 21802 ft | 414 kts | 249° |
| 2026-04-30 12:44 | 47.21472 | 7.81444 | 22379 ft | 416 kts | 249° |
| 2026-04-30 12:45 | 47.20380 | 7.77490 | 22907 ft | 420 kts | 249° |
| 2026-04-30 12:45 | 47.19132 | 7.73578 | 23424 ft | 425 kts | 241° |
| 2026-04-30 12:45 | 47.17515 | 7.69922 | 23916 ft | 428 kts | 235° |
| 2026-04-30 12:45 | 47.15752 | 7.66376 | 24363 ft | 431 kts | 233° |
| 2026-04-30 12:46 | 47.13908 | 7.62882 | 24789 ft | 435 kts | 231° |
| 2026-04-30 12:46 | 47.12015 | 7.59402 | 25203 ft | 438 kts | 231° |
| 2026-04-30 12:46 | 47.10094 | 7.55909 | 25626 ft | 441 kts | 231° |
| 2026-04-30 12:46 | 47.08162 | 7.52399 | 26040 ft | 444 kts | 231° |
| 2026-04-30 12:47 | 47.06222 | 7.48862 | 26431 ft | 447 kts | 231° |
| 2026-04-30 12:47 | 47.04272 | 7.45295 | 26854 ft | 450 kts | 231° |